Weather at Guangzhou Baiyun International Airport

Public forecast

Using degrees Celsius for public forecast. Weather courtesy of forecast.io.

Current aviation weather report (METAR) for Guangzhou Baiyun International Airport

Retrieved 2020/12/02 05:30 UTC (0 seconds ago):

ZGGG 020530Z 01005MPS 340V050 9999 FEW043 22/10 Q1021 NOSIG

Aviation forecast (TAF) for Guangzhou Baiyun International Airport

Retrieved 2020-12-02 00:03 UTC (5 hours ago):

TAF ZGGG 012105Z 0200/0224 02005MPS CAVOK TX23/0207Z TN13/0222Z